Time;durP1;ratioP1;P1;durP2;ratioP2;P2;SDS_P1;SDS_P2;PMS_P1;PMS_P2;Temp;Humidity;BMP_temperature;BMP_pressure;BME280_temperature;BME280_humidity;BME280_pressure;Samples;Min_cycle;Max_cycle;Signal;HPM_P1;HPM_P2
2023/06/07 00:01:54;;;;;;;5.47;2.70;;;;;;;20.85;45.10;100684.94;4128482;28;20133;-66
2023/06/07 00:03:57;;;;;;;4.83;2.13;;;;;;;20.80;45.37;100692.13;4127768;28;20034;-66
2023/06/07 00:06:01;;;;;;;5.53;2.20;;;;;;;20.78;45.26;100688.66;4146126;28;20042;-66
2023/06/07 00:08:05;;;;;;;6.28;2.22;;;;;;;20.73;45.10;100682.59;4146623;28;20034;-66
2023/06/07 00:10:12;;;;;;;4.50;2.30;;;;;;;20.65;44.74;100681.91;4146270;28;20100;-66
2023/06/07 00:12:15;;;;;;;3.83;2.22;;;;;;;20.64;44.79;100682.78;4144538;28;20048;-66
2023/06/07 00:14:18;;;;;;;4.45;2.47;;;;;;;20.61;44.92;100677.59;4127970;28;20149;-66
2023/06/07 00:16:22;;;;;;;4.43;2.97;;;;;;;20.64;44.34;100682.78;4145634;28;20041;-66
2023/06/07 00:18:28;;;;;;;4.90;2.42;;;;;;;20.54;44.83;100683.00;4143194;28;20038;-66
2023/06/07 00:20:31;;;;;;;6.22;2.75;;;;;;;20.50;44.99;100681.34;4129102;28;20499;-66
2023/06/07 00:22:34;;;;;;;3.78;2.58;;;;;;;20.52;44.84;100679.53;4144155;28;20038;-66
2023/06/07 00:24:37;;;;;;;5.03;2.70;;;;;;;20.50;44.76;100680.47;4142680;28;20077;-66
2023/06/07 00:26:41;;;;;;;6.18;2.90;;;;;;;20.47;44.78;100685.81;4145448;28;20446;-66
2023/06/07 00:28:44;;;;;;;4.78;2.90;;;;;;;20.41;44.83;100686.84;4145496;28;20042;-66
2023/06/07 00:30:47;;;;;;;4.68;2.40;;;;;;;20.36;44.96;100683.44;4126255;28;20076;-66
2023/06/07 00:32:50;;;;;;;5.20;2.75;;;;;;;20.37;45.00;100682.53;4140921;28;20038;-65
2023/06/07 00:34:53;;;;;;;5.65;2.92;;;;;;;20.40;45.26;100685.13;4127967;28;20121;-66
2023/06/07 00:36:56;;;;;;;4.90;3.20;;;;;;;20.35;45.21;100676.41;4128303;28;20488;-66
2023/06/07 00:38:59;;;;;;;5.38;3.33;;;;;;;20.33;45.40;100672.97;4126951;28;20411;-66
2023/06/07 00:41:02;;;;;;;6.15;2.85;;;;;;;20.30;45.55;100679.16;4139190;28;20068;-66
2023/06/07 00:43:06;;;;;;;6.65;2.92;;;;;;;20.29;45.38;100671.28;4143453;28;20048;-66
2023/06/07 00:45:10;;;;;;;4.35;2.88;;;;;;;20.21;45.56;100680.25;4127131;28;20042;-66
2023/06/07 00:47:13;;;;;;;6.95;3.30;;;;;;;20.20;46.11;100672.34;4128322;28;20447;-66
2023/06/07 00:49:16;;;;;;;5.03;2.90;;;;;;;20.23;45.89;100675.78;4128584;28;20523;-65
2023/06/07 00:51:19;;;;;;;5.55;3.10;;;;;;;20.23;46.00;100675.78;4143030;28;20080;-65
2023/06/07 00:53:23;;;;;;;4.68;3.25;;;;;;;20.25;45.92;100672.25;4140684;28;20046;-65
2023/06/07 00:55:27;;;;;;;9.85;2.78;;;;;;;20.23;46.11;100669.66;4146035;28;20040;-65
2023/06/07 00:57:32;;;;;;;5.65;3.20;;;;;;;20.12;46.66;100669.91;4124208;28;20133;-65
2023/06/07 00:59:38;;;;;;;5.72;3.65;;;;;;;20.16;46.71;100668.91;4127465;28;20043;-65
2023/06/07 01:01:44;;;;;;;6.82;3.70;;;;;;;20.21;46.53;100674.97;4111332;28;20098;-65
2023/06/07 01:03:47;;;;;;;4.55;3.00;;;;;;;20.25;46.32;100673.09;4126568;28;20069;-65
2023/06/07 01:05:51;;;;;;;;;;;;;;;20.16;47.11;100674.19;4128743;28;20053;-65
2023/06/07 01:07:55;;;;;;;6.78;3.17;;;;;;;20.17;46.81;100678.56;4142425;28;19925;-65
2023/06/07 01:09:58;;;;;;;4.40;2.47;;;;;;;20.17;46.85;100678.56;4111666;28;20507;-65
2023/06/07 01:12:03;;;;;;;5.45;2.60;;;;;;;20.28;46.96;100674.81;4143634;28;20038;-64
2023/06/07 01:14:06;;;;;;;3.67;2.40;;;;;;;20.32;46.90;100671.22;4128186;28;20496;-65
2023/06/07 01:16:11;;;;;;;6.18;2.75;;;;;;;20.30;47.01;100665.97;4127879;28;20046;-65
2023/06/07 01:18:14;;;;;;;5.38;2.72;;;;;;;20.25;47.40;100669.59;4144731;28;20092;-65
2023/06/07 01:20:22;;;;;;;4.05;2.60;;;;;;;20.20;47.60;100667.06;4111055;28;20137;-64
2023/06/07 01:22:27;;;;;;;6.38;2.67;;;;;;;20.18;47.30;100667.13;4142966;28;20128;-65
2023/06/07 01:24:32;;;;;;;;;;;;;;;20.05;47.64;100663.00;4124651;28;20049;-65
2023/06/07 01:26:35;;;;;;;5.15;2.95;;;;;;;20.06;47.65;100664.72;4141975;28;19956;-65
2023/06/07 01:28:41;;;;;;;4.05;2.63;;;;;;;20.12;47.77;100661.09;4127186;28;20125;-65
2023/06/07 01:30:47;;;;;;;5.00;3.08;;;;;;;20.12;47.81;100659.34;4134270;28;20057;-64
2023/06/07 01:32:51;;;;;;;5.78;2.90;;;;;;;20.12;48.00;100659.34;4144660;28;20510;-64
2023/06/07 01:34:55;;;;;;;5.00;3.05;;;;;;;20.09;47.79;100654.09;4127083;28;20034;-65
2023/06/07 01:36:58;;;;;;;7.23;3.13;;;;;;;20.03;47.98;100657.78;4111157;28;20041;-65
2023/06/07 01:39:02;;;;;;;5.32;3.10;;;;;;;20.01;48.08;100646.34;4127213;28;20388;-65
2023/06/07 01:41:07;;;;;;;8.25;3.20;;;;;;;19.99;48.02;100647.28;4127085;28;20511;-65
2023/06/07 01:43:11;;;;;;;5.80;2.97;;;;;;;19.98;47.77;100645.56;4127665;28;20570;-65
2023/06/07 01:45:15;;;;;;;4.15;2.40;;;;;;;19.99;47.24;100647.28;4143439;28;20133;-65
2023/06/07 01:47:18;;;;;;;4.57;2.75;;;;;;;19.95;47.96;100645.66;4143613;28;20495;-65
2023/06/07 01:49:23;;;;;;;5.15;2.55;;;;;;;19.96;47.71;100647.34;4139588;28;20077;-65
2023/06/07 01:51:26;;;;;;;6.35;2.47;;;;;;;20.00;48.27;100652.53;4126095;28;20125;-65
2023/06/07 01:53:30;;;;;;;5.53;2.92;;;;;;;20.07;48.39;100648.00;4124437;28;20147;-65
2023/06/07 01:55:33;;;;;;;;;;;;;;;19.96;48.95;100648.25;4144689;28;20042;-65
2023/06/07 01:57:51;;;;;;;7.00;2.95;;;;;;;20.03;48.94;100643.69;4143743;28;20366;-65
2023/06/07 02:00:06;;;;;;;4.88;2.83;;;;;;;20.06;48.79;100654.16;4127035;28;20647;-66
2023/06/07 02:02:23;;;;;;;5.50;3.10;;;;;;;20.10;48.76;100649.72;4144963;28;20049;-66
2023/06/07 02:04:31;;;;;;;6.90;2.60;;;;;;;20.05;48.50;100652.47;4141238;28;20056;-66
2023/06/07 02:06:37;;;;;;;4.57;2.85;;;;;;;20.03;48.30;100643.69;4140659;28;20041;-66
2023/06/07 02:08:45;;;;;;;3.60;2.47;;;;;;;19.99;48.28;100644.66;4142215;28;20499;-66
2023/06/07 02:10:49;;;;;;;5.07;3.03;;;;;;;19.92;49.25;100640.41;4122759;28;20051;-66
2023/06/07 02:12:54;;;;;;;4.97;2.92;;;;;;;19.88;48.93;100637.84;4126428;28;20121;-65
2023/06/07 02:15:00;;;;;;;4.28;2.80;;;;;;;19.80;49.34;100642.44;4141135;28;20044;-66
2023/06/07 02:17:07;;;;;;;5.38;2.90;;;;;;;19.70;49.31;100636.44;4130714;28;20523;-65
2023/06/07 02:19:13;;;;;;;4.32;2.50;;;;;;;19.70;49.64;100635.56;4113487;28;20093;-65
2023/06/07 02:21:25;;;;;;;4.97;2.85;;;;;;;19.73;49.65;100643.41;4130739;28;20117;-65
2023/06/07 02:23:27;;;;;;;5.72;3.28;;;;;;;19.77;49.76;100637.19;4130042;28;20133;-65
2023/06/07 02:25:32;;;;;;;5.85;2.85;;;;;;;19.67;49.89;100638.28;4130143;28;20049;-65
2023/06/07 02:27:35;;;;;;;5.85;2.90;;;;;;;19.62;49.93;100637.50;4114652;28;20043;-66
2023/06/07 02:29:39;;;;;;;7.00;2.85;;;;;;;19.57;50.18;100639.38;4130306;28;20496;-65
2023/06/07 02:31:42;;;;;;;;;;;;;;;19.37;50.99;100640.63;4114721;28;20034;-65
2023/06/07 02:33:45;;;;;;;4.72;2.55;;;;;;;19.41;50.89;100638.81;4113217;28;19922;-66
2023/06/07 02:35:49;;;;;;;;;;;;;;;19.42;50.68;100641.41;4148636;28;20042;-65
2023/06/07 02:37:52;;;;;;;5.43;2.90;;;;;;;19.44;50.55;100642.22;4130582;28;19932;-65
2023/06/07 02:39:55;;;;;;;4.43;2.78;;;;;;;19.53;50.30;100646.47;4129221;28;20034;-66
2023/06/07 02:41:58;;;;;;;4.82;3.10;;;;;;;19.59;50.51;100645.47;4145647;28;20060;-66
2023/06/07 02:44:01;;;;;;;4.18;3.00;;;;;;;19.49;50.91;100643.03;4127879;28;20052;-66
2023/06/07 02:46:06;;;;;;;5.32;3.20;;;;;;;19.42;51.05;100641.41;4130562;28;20045;-65
2023/06/07 02:48:09;;;;;;;8.20;3.10;;;;;;;19.38;50.98;100645.00;4143674;28;20041;-65
2023/06/07 02:50:12;;;;;;;3.75;2.83;;;;;;;19.36;50.91;100642.41;4129256;28;20538;-66
2023/06/07 02:52:16;;;;;;;4.65;2.83;;;;;;;19.35;51.12;100645.91;4130562;28;20038;-66
2023/06/07 02:54:19;;;;;;;6.18;2.92;;;;;;;19.40;51.37;100643.19;4147183;28;20080;-66
2023/06/07 02:56:24;;;;;;;7.68;2.90;;;;;;;19.48;50.94;100645.69;4129692;28;20129;-66
2023/06/07 02:58:27;;;;;;;4.90;3.10;;;;;;;19.43;50.84;100651.03;4145494;28;20034;-66
2023/06/07 03:00:30;;;;;;;5.22;3.05;;;;;;;19.32;50.87;100645.97;4147172;28;20034;-66
2023/06/07 03:02:39;;;;;;;4.90;3.05;;;;;;;19.22;51.35;100652.31;4137739;28;20034;-66
2023/06/07 03:04:43;;;;;;;6.32;3.15;;;;;;;19.23;51.04;100651.44;4129227;28;20042;-66
2023/06/07 03:06:51;;;;;;;4.90;2.80;;;;;;;19.28;51.16;100654.84;4129573;28;20038;-66
2023/06/07 03:09:02;;;;;;;6.10;2.95;;;;;;;19.37;51.33;100659.06;4129461;28;20088;-66
2023/06/07 03:11:07;;;;;;;4.10;3.08;;;;;;;19.48;51.43;100661.53;4129277;28;20031;-66
2023/06/07 03:13:14;;;;;;;4.28;2.60;;;;;;;19.48;51.38;100654.47;4129738;28;20061;-66
2023/06/07 03:15:18;;;;;;;4.75;2.90;;;;;;;19.50;51.59;100664.97;4130235;28;20541;-66
2023/06/07 03:17:23;;;;;;;6.68;3.20;;;;;;;19.53;51.84;100663.13;4144184;28;20503;-66
2023/06/07 03:19:31;;;;;;;5.10;2.78;;;;;;;19.54;52.06;100661.38;4129206;28;20046;-66
2023/06/07 03:21:35;;;;;;;5.13;2.85;;;;;;;19.46;52.63;100663.28;4144752;28;20065;-66
2023/06/07 03:23:42;;;;;;;3.42;2.60;;;;;;;19.39;52.63;100669.59;4129245;28;20038;-65
2023/06/07 03:25:45;;;;;;;7.85;3.55;;;;;;;19.31;53.36;100670.59;4130002;28;20125;-66
2023/06/07 03:27:49;;;;;;;4.63;2.90;;;;;;;19.14;54.01;100675.31;4128279;28;20066;-65
2023/06/07 03:30:08;;;;;;;8.90;3.92;;;;;;;19.07;54.02;100669.28;4128243;28;20035;-65
2023/06/07 03:32:15;;;;;;;6.65;2.88;;;;;;;19.19;52.97;100678.75;4129774;28;20038;-66
2023/06/07 03:34:18;;;;;;;5.35;3.08;;;;;;;19.21;52.98;100681.34;4146418;28;20612;-66
2023/06/07 03:36:24;;;;;;;6.32;3.15;;;;;;;19.17;52.76;100677.88;4128219;28;20563;-66
2023/06/07 03:38:27;;;;;;;7.72;3.33;;;;;;;19.12;53.04;100682.38;4141938;28;20066;-65
2023/06/07 03:40:30;;;;;;;5.07;2.83;;;;;;;19.16;52.91;100677.03;4112282;28;20039;-66
2023/06/07 03:42:35;;;;;;;5.47;3.60;;;;;;;19.18;53.48;100675.22;4111005;28;20085;-66
2023/06/07 03:44:39;;;;;;;4.35;3.22;;;;;;;19.13;53.21;100671.81;4129378;28;20483;-66
2023/06/07 03:46:42;;;;;;;7.30;4.03;;;;;;;18.98;53.70;100677.34;4144788;28;20037;-65
2023/06/07 03:48:45;;;;;;;8.38;4.05;;;;;;;18.72;54.16;100680.38;4128785;28;20085;-65
2023/06/07 03:50:48;;;;;;;7.13;3.33;;;;;;;18.56;54.68;100685.00;4118140;28;20101;-65
2023/06/07 03:52:53;;;;;;;7.88;3.63;;;;;;;18.69;54.29;100686.56;4129326;28;20030;-65
2023/06/07 03:54:56;;;;;;;5.13;3.33;;;;;;;18.79;54.04;100684.63;4127018;28;20129;-65
2023/06/07 03:57:01;;;;;;;6.95;3.78;;;;;;;18.85;53.50;100679.25;4145375;28;20066;-65
2023/06/07 03:59:06;;;;;;;6.75;3.53;;;;;;;18.84;53.45;100682.81;4128267;28;20125;-65
2023/06/07 04:01:10;;;;;;;4.80;2.72;;;;;;;18.78;53.60;100681.16;4128267;28;20045;-65
2023/06/07 04:03:14;;;;;;;5.78;3.40;;;;;;;18.76;54.23;100682.94;4112560;28;20476;-65
2023/06/07 04:05:17;;;;;;;7.45;3.13;;;;;;;18.84;53.90;100690.72;4128556;28;20385;-66
2023/06/07 04:07:20;;;;;;;6.68;3.90;;;;;;;18.97;53.96;100689.66;4145406;28;20038;-65
2023/06/07 04:09:25;;;;;;;7.47;4.10;;;;;;;18.91;54.14;100689.75;4145734;28;20045;-65
2023/06/07 04:11:29;;;;;;;8.73;3.33;;;;;;;18.48;55.11;100688.63;4127312;28;20092;-66
2023/06/07 04:13:32;;;;;;;5.27;3.23;;;;;;;18.18;55.54;100687.31;4133382;28;20042;-65
2023/06/07 04:15:34;;;;;;;8.25;3.35;;;;;;;17.99;55.89;100683.16;4125475;28;20313;-66
2023/06/07 04:17:37;;;;;;;9.80;3.50;;;;;;;18.15;56.42;100692.63;4124356;28;20034;-66
2023/06/07 04:19:41;;;;;;;5.78;3.58;;;;;;;18.29;55.74;100693.28;4127830;28;20046;-66
2023/06/07 04:21:54;;;;;;;7.15;3.70;;;;;;;18.35;55.69;100689.69;4128189;28;20443;-66
2023/06/07 04:23:58;;;;;;;6.13;3.65;;;;;;;18.48;55.18;100690.38;4126515;28;20497;-65
2023/06/07 04:26:06;;;;;;;5.82;3.45;;;;;;;18.60;55.48;100697.22;4139381;28;20158;-65
2023/06/07 04:28:12;;;;;;;8.02;3.55;;;;;;;18.58;55.09;100689.34;4142927;28;20049;-65
2023/06/07 04:30:18;;;;;;;6.28;3.38;;;;;;;18.65;54.97;100693.63;4145107;28;20038;-65
2023/06/07 04:32:22;;;;;;;5.80;3.25;;;;;;;18.72;54.77;100689.16;4141944;28;20045;-66
2023/06/07 04:34:31;;;;;;;5.93;3.58;;;;;;;18.67;54.90;100689.22;4140508;28;20041;-66
2023/06/07 04:36:39;;;;;;;6.03;3.10;;;;;;;18.71;55.09;100699.72;4109215;28;20046;-66
2023/06/07 04:38:48;;;;;;;6.35;3.55;;;;;;;18.76;55.32;100689.97;4141429;28;20038;-65
2023/06/07 04:41:06;;;;;;;4.18;3.08;;;;;;;18.83;55.07;100684.56;4142009;28;20375;-66
2023/06/07 04:43:23;;;;;;;5.80;3.25;;;;;;;18.91;54.55;100688.88;4143134;28;20084;-66
2023/06/07 04:45:31;;;;;;;5.35;2.90;;;;;;;18.99;54.81;100682.56;4144152;28;20034;-65
2023/06/07 04:47:34;;;;;;;8.23;3.72;;;;;;;19.05;54.41;100684.25;4128042;28;20125;-65
2023/06/07 04:49:38;;;;;;;7.05;2.70;;;;;;;19.08;54.43;100683.31;4124736;28;20041;-66
2023/06/07 04:51:53;;;;;;;6.93;3.75;;;;;;;19.09;54.62;100685.94;4092752;28;20133;-63
2023/06/07 04:53:58;;;;;;;5.32;3.20;;;;;;;19.16;54.10;100682.28;4096244;28;20089;-63
2023/06/07 04:56:04;;;;;;;7.30;3.85;;;;;;;19.20;54.07;100683.09;4096252;29;20071;-63
2023/06/07 04:58:08;;;;;;;7.38;3.15;;;;;;;19.26;53.67;100685.66;4095817;29;20036;-63
2023/06/07 05:00:16;;;;;;;9.55;3.50;;;;;;;19.27;54.03;100686.50;4096191;29;20047;-63
2023/06/07 05:02:21;;;;;;;7.10;3.70;;;;;;;19.37;53.82;100690.69;4100360;28;20047;-62
2023/06/07 05:04:25;;;;;;;9.02;3.50;;;;;;;19.40;53.85;100695.91;4079122;29;20062;-62
2023/06/07 05:06:36;;;;;;;6.72;3.20;;;;;;;19.40;53.58;100702.97;4064122;29;20052;-62
2023/06/07 05:08:42;;;;;;;7.93;3.50;;;;;;;19.45;53.31;100695.81;4095196;29;20094;-63
2023/06/07 05:10:46;;;;;;;5.93;3.53;;;;;;;19.51;53.23;100693.09;4095293;29;20065;-62
2023/06/07 05:12:49;;;;;;;6.95;3.75;;;;;;;19.60;53.50;100697.31;4091934;29;20043;-62
2023/06/07 05:14:53;;;;;;;5.65;3.30;;;;;;;19.60;53.28;100692.91;4095277;29;20039;-63
2023/06/07 05:16:59;;;;;;;7.03;3.78;;;;;;;19.58;53.88;100699.09;4077808;29;20048;-63
2023/06/07 05:19:07;;;;;;;8.95;3.83;;;;;;;19.59;54.33;100698.22;4080666;29;20040;-62
2023/06/07 05:21:13;;;;;;;6.65;3.38;;;;;;;19.59;54.62;100695.56;4093944;29;20513;-63
2023/06/07 05:23:17;;;;;;;6.88;3.55;;;;;;;19.63;54.36;100702.53;4096223;29;20035;-62
2023/06/07 05:25:24;;;;;;;7.28;3.38;;;;;;;19.57;54.81;100694.75;4104413;28;20465;-62
2023/06/07 05:27:27;;;;;;;6.75;3.22;;;;;;;19.69;54.64;100694.50;4094674;28;20059;-62
2023/06/07 05:29:30;;;;;;;7.00;3.63;;;;;;;19.73;54.39;100690.91;4095199;29;20513;-62
2023/06/07 05:31:33;;;;;;;7.55;3.45;;;;;;;19.81;54.31;100689.00;4105192;28;20038;-62
2023/06/07 05:33:38;;;;;;;6.60;3.47;;;;;;;19.83;53.30;100694.22;4094385;29;20512;-63
2023/06/07 05:35:44;;;;;;;6.97;3.60;;;;;;;19.88;52.97;100698.53;4095826;29;20129;-62
2023/06/07 05:37:49;;;;;;;8.73;3.97;;;;;;;20.01;52.72;100695.66;4095450;29;20067;-63
2023/06/07 05:39:53;;;;;;;10.38;4.43;;;;;;;20.15;51.97;100695.34;4062142;29;20509;-63
2023/06/07 05:41:56;;;;;;;6.72;3.20;;;;;;;20.17;50.91;100694.41;4102307;28;20030;-63
2023/06/07 05:43:59;;;;;;;8.07;3.13;;;;;;;20.16;51.34;100695.31;4079634;29;20580;-63
2023/06/07 05:46:02;;;;;;;7.32;3.53;;;;;;;20.22;51.41;100699.56;4102754;28;20453;-62
2023/06/07 05:48:06;;;;;;;9.25;4.10;;;;;;;20.17;51.81;100699.69;4093774;28;20532;-62
2023/06/07 05:50:11;;;;;;;11.30;4.20;;;;;;;20.27;50.96;100700.38;4095140;28;20031;-63
2023/06/07 05:52:15;;;;;;;7.97;3.50;;;;;;;20.18;51.18;100701.44;4098467;29;20050;-63
2023/06/07 05:54:18;;;;;;;6.45;3.40;;;;;;;20.16;51.76;100699.72;4098084;29;20075;-63
2023/06/07 05:56:22;;;;;;;6.90;3.05;;;;;;;20.26;51.84;100698.63;4098920;29;20047;-62
2023/06/07 05:58:26;;;;;;;7.68;3.90;;;;;;;20.30;51.63;100689.72;4098980;29;20126;-63
2023/06/07 06:00:29;;;;;;;7.68;4.57;;;;;;;20.52;49.94;100687.47;4099325;29;20156;-63
2023/06/07 06:02:35;;;;;;;5.53;3.70;;;;;;;20.33;49.65;100688.81;4097720;29;20126;-62
2023/06/07 06:04:38;;;;;;;8.32;4.68;;;;;;;20.17;49.50;100691.75;4109389;28;20137;-63
2023/06/07 06:06:43;;;;;;;8.95;4.20;;;;;;;20.03;50.44;100691.19;4098611;29;20382;-63
2023/06/07 06:08:46;;;;;;;;;;;;;;;20.07;51.05;100694.66;4099783;29;20039;-63
2023/06/07 06:10:49;;;;;;;7.10;4.50;;;;;;;20.29;50.23;100693.25;4102792;28;19967;-63
2023/06/07 06:12:53;;;;;;;6.60;3.40;;;;;;;20.39;49.80;100683.38;4102188;28;20095;-63
2023/06/07 06:14:55;;;;;;;6.82;4.25;;;;;;;20.50;49.80;100685.75;4096863;29;20489;-63
2023/06/07 06:16:58;;;;;;;8.95;4.53;;;;;;;20.75;48.39;100686.09;4098208;29;20043;-63
2023/06/07 06:19:02;;;;;;;8.60;3.30;;;;;;;20.69;48.50;100680.94;4098730;29;20035;-62
2023/06/07 06:21:04;;;;;;;5.25;3.30;;;;;;;20.69;48.59;100681.81;4082110;29;20067;-63
2023/06/07 06:23:09;;;;;;;7.45;3.28;;;;;;;20.77;49.02;100681.63;4098715;29;20050;-62
2023/06/07 06:25:12;;;;;;;12.70;3.65;;;;;;;20.96;47.95;100679.38;4098610;29;20088;-63
2023/06/07 06:27:15;;;;;;;5.72;3.15;;;;;;;20.95;48.20;100685.56;4099193;29;20051;-62
2023/06/07 06:29:18;;;;;;;4.88;3.45;;;;;;;21.02;48.29;100675.72;4102419;28;20074;-63
2023/06/07 06:31:21;;;;;;;5.53;2.70;;;;;;;21.04;48.88;100677.44;4097106;29;20040;-63
2023/06/07 06:33:23;;;;;;;5.65;2.95;;;;;;;21.16;49.19;100686.81;4098825;29;20050;-63
2023/06/07 06:35:27;;;;;;;6.20;3.33;;;;;;;21.25;48.63;100680.41;4097155;29;20434;-63
2023/06/07 06:37:30;;;;;;;3.95;2.63;;;;;;;21.31;48.33;100687.31;4097709;29;20043;-63
2023/06/07 06:39:35;;;;;;;6.82;2.65;;;;;;;21.37;48.12;100684.50;4098591;29;20050;-62
2023/06/07 06:41:37;;;;;;;5.50;2.55;;;;;;;21.40;48.10;100681.78;4102779;28;20578;-63
2023/06/07 06:43:41;;;;;;;6.55;2.70;;;;;;;21.54;47.67;100677.00;4107383;28;20036;-63
2023/06/07 06:45:47;;;;;;;4.65;2.85;;;;;;;21.61;47.65;100686.50;4097938;29;20069;-63
2023/06/07 06:47:50;;;;;;;4.75;2.45;;;;;;;21.74;47.69;100686.16;4098358;29;20066;-63
2023/06/07 06:49:54;;;;;;;3.10;2.38;;;;;;;21.85;47.62;100689.34;4081941;29;20051;-63
2023/06/07 06:51:57;;;;;;;4.85;2.50;;;;;;;21.90;47.77;100690.09;4099143;29;20036;-63
2023/06/07 06:54:00;;;;;;;4.85;3.05;;;;;;;21.83;47.56;100688.53;4098312;29;20129;-63
2023/06/07 06:56:06;;;;;;;6.60;2.83;;;;;;;21.75;47.53;100694.03;4097888;29;20035;-62
2023/06/07 06:58:09;;;;;;;4.28;2.67;;;;;;;21.77;47.72;100694.00;4097411;29;20062;-63
2023/06/07 07:00:12;;;;;;;4.45;2.50;;;;;;;21.87;47.61;100699.91;4097992;29;20058;-63
2023/06/07 07:02:15;;;;;;;5.07;2.65;;;;;;;21.93;47.31;100695.31;4098698;28;20043;-63
2023/06/07 07:04:19;;;;;;;6.13;3.33;;;;;;;21.87;47.50;100695.47;4097275;29;20567;-63
2023/06/07 07:06:22;;;;;;;4.68;2.63;;;;;;;21.94;47.71;100697.03;4081634;29;20322;-63
2023/06/07 07:08:26;;;;;;;4.72;2.80;;;;;;;22.08;47.56;100690.47;4094447;29;20130;-63
2023/06/07 07:10:28;;;;;;;4.32;2.88;;;;;;;22.21;47.35;100690.94;4098253;29;20404;-63
2023/06/07 07:12:33;;;;;;;6.32;2.88;;;;;;;22.24;46.92;100699.69;4098057;29;20041;-63
2023/06/07 07:14:36;;;;;;;;;;;;;;;22.22;47.14;100704.13;4102188;28;20133;-63
2023/06/07 07:16:39;;;;;;;4.70;2.53;;;;;;;22.27;47.02;100699.59;4099358;29;19934;-63
2023/06/07 07:18:42;;;;;;;3.72;2.85;;;;;;;22.34;46.96;100702.06;4081266;29;20441;-63
2023/06/07 07:20:45;;;;;;;3.95;2.53;;;;;;;22.42;47.15;100698.28;4097132;28;20126;-63
2023/06/07 07:22:48;;;;;;;5.03;2.80;;;;;;;22.45;47.21;100697.31;4081712;29;20047;-63
2023/06/07 07:24:51;;;;;;;6.50;3.05;;;;;;;22.45;47.04;100706.13;4098574;28;20497;-63
2023/06/07 07:26:54;;;;;;;4.30;3.05;;;;;;;22.55;46.71;100706.69;4096976;29;20079;-63
2023/06/07 07:28:58;;;;;;;3.95;2.50;;;;;;;22.64;46.41;100706.41;4080790;29;20131;-61
2023/06/07 07:31:01;;;;;;;5.82;3.95;;;;;;;22.72;46.02;100700.00;4096219;29;20559;-63
2023/06/07 07:33:05;;;;;;;6.20;3.53;;;;;;;22.71;45.96;100696.47;4099084;28;20078;-63
2023/06/07 07:35:08;;;;;;;6.90;3.70;;;;;;;22.90;45.43;100702.03;4097173;29;20548;-63
2023/06/07 07:37:12;;;;;;;4.63;3.03;;;;;;;22.84;45.77;100697.81;4098187;29;20047;-63
2023/06/07 07:39:17;;;;;;;7.00;3.72;;;;;;;22.75;46.49;100695.47;4097795;29;20405;-63
2023/06/07 07:41:20;;;;;;;6.80;3.53;;;;;;;22.71;46.60;100693.84;4080700;29;20074;-63
2023/06/07 07:43:23;;;;;;;6.63;2.90;;;;;;;22.77;47.17;100695.41;4097255;28;20075;-61
2023/06/07 07:45:27;;;;;;;6.50;3.90;;;;;;;23.02;45.50;100693.66;4097264;28;20051;-61
2023/06/07 07:47:30;;;;;;;4.90;3.60;;;;;;;22.88;45.33;100698.59;4097199;29;20083;-61
2023/06/07 07:49:33;;;;;;;7.00;3.78;;;;;;;22.83;45.54;100706.66;4097639;29;20043;-63
2023/06/07 07:51:38;;;;;;;4.97;3.33;;;;;;;22.82;45.85;100697.00;4094679;29;20051;-62
2023/06/07 07:53:41;;;;;;;7.63;4.75;;;;;;;23.07;45.34;100708.56;4097513;29;20126;-61
2023/06/07 07:55:44;;;;;;;6.27;3.50;;;;;;;23.06;44.67;100704.19;4094291;29;20035;-62
2023/06/07 07:57:48;;;;;;;6.07;4.20;;;;;;;23.04;45.13;100703.34;4095116;29;20047;-62
2023/06/07 07:59:51;;;;;;;5.68;3.70;;;;;;;23.14;45.65;100696.84;4096976;29;20039;-62
2023/06/07 08:01:55;;;;;;;7.05;3.80;;;;;;;23.29;45.20;100701.63;4096149;29;20644;-62
2023/06/07 08:03:59;;;;;;;;;;;;;;;23.37;44.57;100703.16;4097130;29;20079;-62
2023/06/07 08:06:12;;;;;;;7.78;4.15;;;;;;;22.81;45.82;100705.88;4097841;29;19934;-62
2023/06/07 08:08:16;;;;;;;6.28;4.13;;;;;;;22.92;45.73;100694.88;4096301;29;20404;-62
2023/06/07 08:10:19;;;;;;;5.93;3.05;;;;;;;22.97;46.17;100700.91;4094802;29;20055;-62
2023/06/07 08:12:21;;;;;;;15.15;5.20;;;;;;;23.35;45.23;100700.56;4095799;28;20490;-62
2023/06/07 08:14:24;;;;;;;6.97;4.18;;;;;;;23.44;44.59;100697.56;4095937;28;20046;-62
2023/06/07 08:16:27;;;;;;;5.15;3.75;;;;;;;23.47;44.70;100686.00;4104339;28;20040;-62
2023/06/07 08:18:31;;;;;;;6.50;4.45;;;;;;;23.70;45.31;100691.31;4097176;29;20062;-62
2023/06/07 08:20:34;;;;;;;5.80;4.70;;;;;;;23.72;44.26;100687.75;4096673;29;20047;-62
2023/06/07 08:22:38;;;;;;;5.70;3.72;;;;;;;23.55;45.02;100688.34;4099891;28;20382;-62
2023/06/07 08:24:40;;;;;;;5.97;4.68;;;;;;;23.68;44.65;100679.91;4095166;29;20202;-61
2023/06/07 08:26:45;;;;;;;6.90;4.75;;;;;;;23.68;43.78;100681.69;4091164;29;20050;-62
2023/06/07 08:28:48;;;;;;;5.85;4.00;;;;;;;23.56;44.91;100669.72;4079281;29;20486;-62
2023/06/07 08:30:51;;;;;;;6.75;4.70;;;;;;;23.75;45.01;100672.56;4096060;29;20070;-62
2023/06/07 08:32:53;;;;;;;7.25;4.20;;;;;;;23.68;44.86;100677.25;4100253;29;20080;-62
2023/06/07 08:34:58;;;;;;;6.60;4.70;;;;;;;23.93;45.36;100676.34;4099814;29;20039;-62
2023/06/07 08:37:01;;;;;;;;;;;;;;;24.08;45.14;100680.22;4083621;29;20075;-62
2023/06/07 08:39:04;;;;;;;6.95;4.18;;;;;;;24.13;44.32;100680.03;4100161;29;19922;-62
2023/06/07 08:41:07;;;;;;;7.13;4.80;;;;;;;24.33;43.30;100680.13;4099559;29;20047;-62
2023/06/07 08:43:10;;;;;;;7.43;4.93;;;;;;;24.27;43.00;100683.03;4082356;29;20050;-62
2023/06/07 08:45:13;;;;;;;10.98;5.25;;;;;;;24.04;43.33;100679.47;4082836;29;20494;-62
2023/06/07 08:47:17;;;;;;;9.25;4.45;;;;;;;24.02;43.52;100683.97;4099751;29;20484;-62
2023/06/07 08:49:21;;;;;;;5.60;3.95;;;;;;;24.14;42.91;100679.13;4099767;29;20043;-62
2023/06/07 08:51:26;;;;;;;7.93;3.95;;;;;;;24.21;43.18;100686.78;4099276;29;20055;-62
2023/06/07 08:53:38;;;;;;;7.18;4.13;;;;;;;24.30;43.42;100682.00;4082853;29;20442;-62
2023/06/07 08:55:42;;;;;;;9.70;4.53;;;;;;;24.51;42.86;100682.97;4099355;29;20126;-62
2023/06/07 08:57:50;;;;;;;5.95;4.43;;;;;;;24.69;42.08;100684.91;4095474;29;20412;-62
2023/06/07 08:59:53;;;;;;;6.07;4.13;;;;;;;24.61;41.98;100681.69;4097407;29;20049;-62
2023/06/07 09:01:57;;;;;;;6.75;4.70;;;;;;;24.67;41.97;100684.09;4097535;29;20110;-62
2023/06/07 09:04:00;;;;;;;8.35;4.47;;;;;;;24.42;42.24;100688.66;4097003;29;20392;-62
2023/06/07 09:06:03;;;;;;;7.57;4.50;;;;;;;24.64;43.16;100688.69;4105271;28;20404;-62
2023/06/07 09:08:08;;;;;;;6.53;4.35;;;;;;;24.67;42.36;100686.75;4081293;29;20082;-62
2023/06/07 09:10:13;;;;;;;5.47;4.30;;;;;;;24.63;41.35;100687.81;4097524;29;20605;-62
2023/06/07 09:12:16;;;;;;;10.88;4.82;;;;;;;24.17;42.74;100689.63;4096441;29;20047;-62
2023/06/07 09:14:19;;;;;;;5.32;3.90;;;;;;;23.73;43.91;100678.84;4096521;29;20053;-62
2023/06/07 09:16:21;;;;;;;7.68;4.40;;;;;;;23.84;43.73;100676.66;4080124;29;20043;-62
2023/06/07 09:18:41;;;;;;;7.13;4.90;;;;;;;24.35;43.40;100685.38;4097272;29;20047;-62
2023/06/07 09:20:44;;;;;;;6.97;4.80;;;;;;;24.38;43.36;100683.44;4079396;29;20043;-62
2023/06/07 09:22:57;;;;;;;5.82;4.45;;;;;;;24.32;42.84;100688.16;4096195;29;20063;-62
2023/06/07 09:25:09;;;;;;;7.35;4.82;;;;;;;24.11;42.79;100684.53;4094535;28;20039;-63
2023/06/07 09:27:13;;;;;;;5.88;4.68;;;;;;;24.05;43.11;100673.22;4095980;29;20047;-63
2023/06/07 09:29:16;;;;;;;8.68;4.72;;;;;;;23.84;43.89;100681.97;4079681;29;20511;-63
2023/06/07 09:31:32;;;;;;;6.47;4.32;;;;;;;23.80;44.40;100681.25;4079214;29;20039;-63
2023/06/07 09:33:35;;;;;;;6.13;4.22;;;;;;;23.66;44.56;100681.72;4095145;29;20444;-63
2023/06/07 09:35:38;;;;;;;8.68;4.82;;;;;;;23.57;44.35;100679.44;4099592;28;20065;-63
2023/06/07 09:37:42;;;;;;;4.82;3.72;;;;;;;23.55;44.50;100675.94;4094100;29;20046;-62
2023/06/07 09:39:45;;;;;;;7.30;4.55;;;;;;;23.95;44.12;100671.84;4096882;29;20047;-63
2023/06/07 09:41:50;;;;;;;5.93;4.45;;;;;;;24.28;43.43;100681.22;4096783;29;20045;-62